createdAt,value
2023-03-30T00:01:43.367Z,99641.16
2023-03-30T00:06:48.466Z,99615.59
2023-03-30T00:11:51.373Z,99629.56
2023-03-30T00:16:54.276Z,99631.75
2023-03-30T00:21:58.474Z,99603.34
2023-03-30T00:27:01.449Z,99577.66
2023-03-30T00:32:04.234Z,99575.22
2023-03-30T00:37:08.361Z,99552.47
2023-03-30T00:42:17.163Z,99554.56
2023-03-30T00:47:22.980Z,99545.84
2023-03-30T00:52:28.009Z,99564.97
2023-03-30T00:57:31.399Z,99526.66
2023-03-30T01:02:39.523Z,99525.81
2023-03-30T01:07:46.310Z,99515.53
2023-03-30T01:12:49.869Z,99512.94
2023-03-30T01:18:08.775Z,99516.72
2023-03-30T01:23:39.042Z,99519.78
2023-03-30T01:28:50.044Z,99521.88
2023-03-30T01:34:28.910Z,99507.94
2023-03-30T01:39:44.886Z,99497.31
2023-03-30T01:44:58.127Z,99492.16
2023-03-30T01:50:06.530Z,99495.97
2023-03-30T01:55:16.804Z,99495.34
2023-03-30T02:00:23.623Z,99484.09
2023-03-30T02:05:27.956Z,99471.50
2023-03-30T02:10:36.286Z,99466.25
2023-03-30T02:15:42.782Z,99457.44
2023-03-30T02:20:45.786Z,99433.47
2023-03-30T02:25:49.870Z,99434.59
2023-03-30T02:30:53.475Z,99425.03
2023-03-30T02:36:14.684Z,99423.34
2023-03-30T02:41:34.810Z,99416.34
2023-03-30T02:47:00.981Z,99412.94
2023-03-30T02:52:15.785Z,99402.31
2023-03-30T02:57:32.844Z,99399.63
2023-03-30T03:02:59.572Z,99390.09
2023-03-30T03:08:06.028Z,99398.16
2023-03-30T03:13:11.496Z,99387.53
2023-03-30T03:18:18.477Z,99400.34
2023-03-30T03:23:21.501Z,99384.22
2023-03-30T03:28:28.401Z,99374.47
2023-03-30T03:33:37.512Z,99367.38
2023-03-30T03:38:49.939Z,99371.00
2023-03-30T03:43:54.574Z,99365.53
2023-03-30T03:48:57.586Z,99361.25
2023-03-30T03:54:01.374Z,99387.41
2023-03-30T03:59:05.770Z,99394.75
2023-03-30T04:04:08.552Z,99374.19
2023-03-30T04:09:11.481Z,99361.50
2023-03-30T04:14:46.726Z,99382.25
2023-03-30T04:20:23.403Z,99377.88
2023-03-30T04:25:45.677Z,99368.22
2023-03-30T04:31:18.594Z,99360.28
2023-03-30T04:36:43.215Z,99354.16
2023-03-30T04:42:20.032Z,99353.31
2023-03-30T04:47:44.671Z,99349.78
2023-03-30T04:53:05.641Z,99348.06
2023-03-30T04:58:34.628Z,99345.38
2023-03-30T05:03:57.561Z,99333.03
2023-03-30T05:09:14.643Z,99326.81
2023-03-30T05:14:35.748Z,99347.56
2023-03-30T05:20:00.203Z,99349.38
2023-03-30T05:25:16.259Z,99347.78
2023-03-30T05:30:29.776Z,99343.25
2023-03-30T05:35:52.788Z,99344.25
2023-03-30T05:41:09.245Z,99345.22
2023-03-30T05:46:28.013Z,99354.13
2023-03-30T05:51:52.294Z,99340.84
2023-03-30T05:57:18.342Z,99341.69
2023-03-30T06:02:53.728Z,99344.38
2023-03-30T06:08:01.621Z,99318.34
2023-03-30T06:13:05.961Z,99312.25
2023-03-30T06:18:17.705Z,99293.53
2023-03-30T06:23:30.030Z,99289.03
2023-03-30T06:28:38.063Z,99275.47
2023-03-30T06:33:42.085Z,99268.13
2023-03-30T06:38:48.750Z,99277.06
2023-03-30T06:43:53.298Z,99282.28
2023-03-30T06:48:57.901Z,99275.97
2023-03-30T06:54:20.437Z,99275.13
2023-03-30T06:59:32.511Z,99260.78
2023-03-30T07:04:55.657Z,99253.47
2023-03-30T07:10:11.071Z,99268.88
2023-03-30T07:15:14.667Z,99245.81
2023-03-30T07:20:18.025Z,99249.34
2023-03-30T07:25:54.333Z,99247.53
2023-03-30T07:31:06.177Z,99252.53
2023-03-30T07:36:10.745Z,99263.28
2023-03-30T07:41:17.975Z,99261.44
2023-03-30T07:46:24.398Z,99249.22
2023-03-30T07:51:30.413Z,99258.38
2023-03-30T07:56:44.779Z,99257.53
2023-03-30T08:01:50.226Z,99266.06
2023-03-30T08:07:09.942Z,99266.81
2023-03-30T08:12:14.711Z,99276.84
2023-03-30T08:17:19.206Z,99279.16
2023-03-30T08:22:22.345Z,99285.47
2023-03-30T08:27:26.720Z,99292.81
2023-03-30T08:32:29.715Z,99295.88
2023-03-30T08:37:32.634Z,99312.50
2023-03-30T08:43:12.231Z,99319.34
2023-03-30T08:48:19.499Z,99309.19
2023-03-30T08:53:22.852Z,99318.13
2023-03-30T08:58:35.820Z,99310.78
2023-03-30T09:03:43.575Z,99316.88
2023-03-30T09:08:49.477Z,99325.78
2023-03-30T09:13:56.091Z,99320.19
2023-03-30T09:19:01.960Z,99319.00
2023-03-30T09:24:14.051Z,99309.94
2023-03-30T09:29:21.192Z,99303.34
2023-03-30T09:34:28.192Z,99295.97
2023-03-30T09:39:33.630Z,99311.66
2023-03-30T09:44:43.761Z,99321.28
2023-03-30T09:49:47.183Z,99326.41
2023-03-30T09:54:49.936Z,99311.13
2023-03-30T09:59:55.811Z,99322.59
2023-03-30T10:05:02.262Z,99313.59
2023-03-30T10:10:16.447Z,99312.59
2023-03-30T10:15:24.503Z,99308.25
2023-03-30T10:20:30.720Z,99300.19
2023-03-30T10:25:34.948Z,99294.41
2023-03-30T10:30:39.180Z,99299.31
2023-03-30T10:35:42.131Z,99287.66
2023-03-30T10:40:47.242Z,99294.03
2023-03-30T10:45:53.991Z,99291.00
2023-03-30T10:51:03.087Z,99302.22
2023-03-30T10:56:16.928Z,99284.41
2023-03-30T11:01:26.701Z,99264.75
2023-03-30T11:06:33.946Z,99269.75
2023-03-30T11:11:41.839Z,99260.47
2023-03-30T11:16:53.813Z,99254.50
2023-03-30T11:22:04.327Z,99239.94
2023-03-30T11:27:15.729Z,99244.72
2023-03-30T11:32:30.965Z,99228.84
2023-03-30T11:37:38.390Z,99218.59
2023-03-30T11:42:41.320Z,99216.91
2023-03-30T11:48:06.720Z,99215.53
2023-03-30T11:53:24.318Z,99222.75
2023-03-30T11:58:36.369Z,99204.16
2023-03-30T12:03:43.780Z,99192.53
2023-03-30T12:09:07.189Z,99149.09
2023-03-30T12:14:36.967Z,99154.66
2023-03-30T12:19:55.568Z,99144.13
2023-03-30T12:25:06.327Z,99140.69
2023-03-30T12:30:15.884Z,99115.13
2023-03-30T12:35:52.827Z,99135.97
2023-03-30T12:41:06.082Z,99121.88
2023-03-30T12:46:19.893Z,99110.47
2023-03-30T12:51:41.231Z,99107.13
2023-03-30T12:56:51.515Z,99110.97
2023-03-30T13:02:38.929Z,99110.56
2023-03-30T13:07:44.662Z,99129.28
2023-03-30T13:12:49.727Z,99125.59
2023-03-30T13:17:59.364Z,99119.44
2023-03-30T13:23:26.226Z,99095.69
2023-03-30T13:28:56.501Z,99093.72
2023-03-30T13:34:06.718Z,99099.94
2023-03-30T13:39:17.691Z,99112.28
2023-03-30T13:44:40.004Z,99111.31
2023-03-30T13:49:51.546Z,99109.91
2023-03-30T13:54:55.794Z,99085.97
2023-03-30T14:00:06.047Z,99101.66
2023-03-30T14:05:15.537Z,99095.41
2023-03-30T14:10:22.087Z,99090.47
2023-03-30T14:15:29.177Z,99091.91
2023-03-30T14:20:46.586Z,99112.06
2023-03-30T14:25:54.575Z,99157.50
2023-03-30T14:30:59.166Z,99190.81
2023-03-30T14:36:03.781Z,99209.66
2023-03-30T14:41:11.193Z,99212.34
2023-03-30T14:46:14.219Z,99220.72
2023-03-30T14:51:26.868Z,99217.28
2023-03-30T14:56:32.635Z,99238.25
2023-03-30T15:01:35.919Z,99234.13
2023-03-30T15:06:39.197Z,99211.66
2023-03-30T15:11:45.798Z,99182.44
2023-03-30T15:16:53.604Z,99206.09
2023-03-30T15:22:00.961Z,99208.91
2023-03-30T15:27:07.788Z,99208.19
2023-03-30T15:32:16.317Z,99213.72
2023-03-30T15:37:23.940Z,99235.38
2023-03-30T15:42:31.513Z,99222.88
2023-03-30T15:47:35.216Z,99225.81
2023-03-30T15:52:43.092Z,99238.81
2023-03-30T15:57:52.655Z,99239.19
2023-03-30T16:02:58.465Z,99238.81
2023-03-30T16:08:01.543Z,99237.13
2023-03-30T16:13:06.976Z,99233.34
2023-03-30T16:18:11.759Z,99225.03
2023-03-30T16:23:14.553Z,99230.72
2023-03-30T16:28:19.259Z,99224.09
2023-03-30T16:33:22.051Z,99223.56
2023-03-30T16:38:24.899Z,99232.16
2023-03-30T16:43:29.247Z,99228.78
2023-03-30T16:48:32.060Z,99239.75
2023-03-30T16:53:35.119Z,99240.47
2023-03-30T16:58:39.735Z,99241.53
2023-03-30T17:03:42.635Z,99246.94
2023-03-30T17:08:45.908Z,99244.50
2023-03-30T17:13:51.223Z,99250.63
2023-03-30T17:18:54.063Z,99259.00
2023-03-30T17:23:57.826Z,99257.63
2023-03-30T17:29:02.153Z,99268.66
2023-03-30T17:34:06.658Z,99282.22
2023-03-30T17:39:13.059Z,99282.53
2023-03-30T17:44:17.187Z,99281.00
2023-03-30T17:49:20.041Z,99286.22
2023-03-30T17:54:24.021Z,99287.75
2023-03-30T17:59:28.240Z,99295.22
2023-03-30T18:04:31.094Z,99294.00
2023-03-30T18:09:34.282Z,99304.16
2023-03-30T18:14:38.421Z,99306.00
2023-03-30T18:19:41.249Z,99307.59
2023-03-30T18:24:43.983Z,99310.44
2023-03-30T18:29:48.142Z,99304.91
2023-03-30T18:34:50.985Z,99305.34
2023-03-30T18:39:53.795Z,99309.44
2023-03-30T18:44:58.065Z,99315.13
2023-03-30T18:50:00.821Z,99313.44
2023-03-30T18:55:03.657Z,99311.88
2023-03-30T19:00:19.666Z,99319.13
2023-03-30T19:05:24.232Z,99319.56
2023-03-30T19:10:30.789Z,99321.56
2023-03-30T19:15:36.705Z,99327.91
2023-03-30T19:20:41.332Z,99333.50
2023-03-30T19:25:45.281Z,99343.69
2023-03-30T19:30:49.492Z,99348.69
2023-03-30T19:35:52.370Z,99340.44
2023-03-30T19:41:00.844Z,99345.53
2023-03-30T19:46:06.033Z,99352.25
2023-03-30T19:51:09.123Z,99359.22
2023-03-30T19:56:12.691Z,99358.78
2023-03-30T20:01:16.859Z,99357.81
2023-03-30T20:06:19.748Z,99370.56
2023-03-30T20:11:23.341Z,99370.41
2023-03-30T20:16:30.003Z,99368.59
2023-03-30T20:21:33.852Z,99366.75
2023-03-30T20:26:36.848Z,99372.88
2023-03-30T20:31:41.174Z,99373.16
2023-03-30T20:36:44.806Z,99372.28
2023-03-30T20:41:47.796Z,99371.53
2023-03-30T20:46:57.936Z,99371.00
2023-03-30T20:52:01.966Z,99388.47
2023-03-30T20:57:04.804Z,99387.59
2023-03-30T21:02:11.567Z,99381.19
2023-03-30T21:07:16.188Z,99383.34
2023-03-30T21:12:19.016Z,99372.31
2023-03-30T21:17:23.121Z,99364.44
2023-03-30T21:22:25.958Z,99359.34
2023-03-30T21:27:28.916Z,99373.13
2023-03-30T21:32:33.327Z,99367.56
2023-03-30T21:37:36.230Z,99371.84
2023-03-30T21:42:39.011Z,99355.50
2023-03-30T21:47:43.207Z,99346.41
2023-03-30T21:52:46.093Z,99343.88
2023-03-30T21:57:48.799Z,99351.25
2023-03-30T22:02:53.009Z,99353.22
2023-03-30T22:07:55.846Z,99345.28
2023-03-30T22:12:58.684Z,99354.63
2023-03-30T22:18:03.476Z,99354.78
2023-03-30T22:23:07.519Z,99349.53
2023-03-30T22:28:11.899Z,99346.25
2023-03-30T22:33:17.299Z,99326.66
2023-03-30T22:38:20.115Z,99312.69
2023-03-30T22:43:23.041Z,99308.72
2023-03-30T22:48:27.157Z,99302.72
2023-03-30T22:53:30.271Z,99300.31
2023-03-30T22:58:33.013Z,99302.13
2023-03-30T23:03:37.196Z,99304.25
2023-03-30T23:08:40.008Z,99292.44
2023-03-30T23:13:43.068Z,99292.13
2023-03-30T23:18:47.513Z,99295.38
2023-03-30T23:23:50.828Z,99289.53
2023-03-30T23:28:53.636Z,99293.16
2023-03-30T23:33:58.028Z,99296.28
2023-03-30T23:39:01.025Z,99293.59
2023-03-30T23:44:03.976Z,99287.00
2023-03-30T23:49:08.119Z,99282.88
2023-03-30T23:54:10.932Z,99278.28
2023-03-30T23:59:14.144Z,99273.44
